Time;durP1;ratioP1;P1;durP2;ratioP2;P2;SDS_P1;SDS_P2;PMS_P1;PMS_P2;Temp;Humidity;BMP_temperature;BMP_pressure;BME280_temperature;BME280_humidity;BME280_pressure;Samples;Min_cycle;Max_cycle;Signal;HPM_P1;HPM_P2
2023/03/06 00:01:15;;;;;;;3.20;3.08;;;;;;;;;;5034945;28;20045;-88
2023/03/06 00:03:42;;;;;;;2.33;2.13;;;;;;;;;;5034597;28;20053;-88
2023/03/06 00:06:08;;;;;;;2.70;2.50;;;;;;;;;;5034734;28;20045;-89
2023/03/06 00:08:35;;;;;;;3.45;3.22;;;;;;;;;;5034413;28;20057;-88
2023/03/06 00:11:01;;;;;;;0.98;0.98;;;;;;;;;;5034884;28;20049;-89
2023/03/06 00:13:29;;;;;;;3.40;3.05;;;;;;;;;;5034437;28;20053;-88
2023/03/06 00:15:58;;;;;;;2.70;2.17;;;;;;;;;;5034820;28;20050;-89
2023/03/06 00:18:25;;;;;;;2.03;1.92;;;;;;;;;;5034529;28;20503;-88
2023/03/06 00:20:52;;;;;;;2.38;2.22;;;;;;;;;;5034308;28;20053;-89
2023/03/06 00:23:18;;;;;;;2.28;2.17;;;;;;;;;;5034524;28;20045;-88
2023/03/06 00:25:45;;;;;;;2.40;2.20;;;;;;;;;;5034090;28;20076;-89
2023/03/06 00:28:13;;;;;;;4.35;3.80;;;;;;;;;;5034117;28;20556;-88
2023/03/06 00:30:40;;;;;;;2.35;2.15;;;;;;;;;;5035512;28;20136;-89
2023/03/06 00:33:06;;;;;;;2.08;1.98;;;;;;;;;;5054351;28;20114;-88
2023/03/06 00:35:34;;;;;;;2.97;2.67;;;;;;;;;;5055050;28;20053;-88
2023/03/06 00:38:00;;;;;;;3.70;3.50;;;;;;;;;;5054662;28;20045;-89
2023/03/06 00:40:27;;;;;;;2.90;2.75;;;;;;;;;;5055324;28;20041;-89
2023/03/06 00:42:53;;;;;;;2.95;2.75;;;;;;;;;;5054537;28;20049;-89
2023/03/06 00:45:20;;;;;;;4.70;4.47;;;;;;;;;;5053731;28;20072;-88
2023/03/06 00:47:47;;;;;;;4.82;4.53;;;;;;;;;;5054382;28;20059;-88
2023/03/06 00:50:13;;;;;;;2.35;1.88;;;;;;;;;;5054311;28;20049;-88
2023/03/06 00:52:41;;;;;;;3.65;2.65;;;;;;;;;;5055675;28;20045;-89
2023/03/06 00:55:09;;;;;;;2.00;1.90;;;;;;;;;;5055137;28;20141;-88
2023/03/06 00:57:35;;;;;;;4.78;3.40;;;;;;;;;;5054732;28;20110;-89
2023/03/06 01:00:02;;;;;;;2.13;2.03;;;;;;;;;;5053790;28;20392;-88
2023/03/06 01:02:29;;;;;;;2.75;2.55;;;;;;;;;;5053697;28;20060;-89
2023/03/06 01:04:55;;;;;;;3.00;2.83;;;;;;;;;;5053199;28;20438;-88
2023/03/06 01:07:22;;;;;;;4.95;4.30;;;;;;;;;;5053319;28;20099;-89
2023/03/06 01:09:50;;;;;;;2.72;2.47;;;;;;;;;;5053594;28;20099;-88
2023/03/06 01:12:16;;;;;;;5.13;3.75;;;;;;;;;;5053911;28;20048;-89
2023/03/06 01:14:43;;;;;;;1.70;1.60;;;;;;;;;;5053233;28;20764;-88
2023/03/06 01:17:09;;;;;;;1.20;1.15;;;;;;;;;;5053568;28;20052;-89
2023/03/06 01:19:36;;;;;;;2.20;1.98;;;;;;;;;;5053266;28;20049;-88
2023/03/06 01:22:02;;;;;;;1.63;1.52;;;;;;;;;;5053574;28;20391;-88
2023/03/06 01:24:29;;;;;;;2.47;2.25;;;;;;;;;;5053704;28;20053;-88
2023/03/06 01:26:57;;;;;;;1.17;1.17;;;;;;;;;;5053101;28;20106;-88
2023/03/06 01:29:25;;;;;;;3.10;2.88;;;;;;;;;;5052922;28;20049;-89
2023/03/06 01:31:51;;;;;;;1.48;1.40;;;;;;;;;;5053349;28;20077;-88
2023/03/06 01:34:18;;;;;;;1.35;1.25;;;;;;;;;;5052929;28;20048;-88
2023/03/06 01:36:44;;;;;;;1.63;1.55;;;;;;;;;;5053198;28;20110;-87
2023/03/06 01:39:11;;;;;;;1.23;1.17;;;;;;;;;;5053281;28;20049;-88
2023/03/06 01:41:37;;;;;;;2.00;1.83;;;;;;;;;;5052778;28;20103;-88
2023/03/06 01:44:05;;;;;;;1.27;1.25;;;;;;;;;;5053048;28;20462;-88
2023/03/06 01:46:33;;;;;;;3.55;3.25;;;;;;;;;;5052738;28;20460;-88
2023/03/06 01:49:02;;;;;;;2.30;2.20;;;;;;;;;;5052793;28;20102;-88
2023/03/06 01:51:30;;;;;;;2.58;2.47;;;;;;;;;;5052768;28;20461;-88
2023/03/06 01:54:00;;;;;;;2.28;2.17;;;;;;;;;;5052584;28;20114;-89
2023/03/06 01:56:26;;;;;;;3.47;3.28;;;;;;;;;;5051650;28;20485;-88
2023/03/06 01:58:53;;;;;;;2.72;2.60;;;;;;;;;;5052218;28;20045;-88
2023/03/06 02:01:21;;;;;;;2.28;1.92;;;;;;;;;;5052656;28;20045;-88
2023/03/06 02:03:48;;;;;;;2.20;2.08;;;;;;;;;;5052806;28;20110;-88
2023/03/06 02:06:18;;;;;;;4.20;3.95;;;;;;;;;;5052703;28;20049;-88
2023/03/06 02:08:45;;;;;;;4.35;4.03;;;;;;;;;;5052732;28;20053;-88
2023/03/06 02:11:13;;;;;;;2.30;2.15;;;;;;;;;;5052520;28;20045;-88
2023/03/06 02:13:39;;;;;;;2.20;2.10;;;;;;;;;;5052588;28;20045;-89
2023/03/06 02:16:07;;;;;;;4.20;3.85;;;;;;;;;;5052257;28;20486;-89
2023/03/06 02:18:35;;;;;;;3.42;3.22;;;;;;;;;;5052503;28;20129;-89
2023/03/06 02:21:02;;;;;;;2.72;2.53;;;;;;;;;;5052494;28;20045;-88
2023/03/06 02:23:32;;;;;;;2.13;1.98;;;;;;;;;;5052734;28;20415;-89
2023/03/06 02:26:00;;;;;;;2.17;2.05;;;;;;;;;;5052393;28;20114;-89
2023/03/06 02:28:27;;;;;;;2.83;2.70;;;;;;;;;;5052404;28;20099;-88
2023/03/06 02:30:54;;;;;;;3.67;3.38;;;;;;;;;;5052026;28;20061;-88
2023/03/06 02:33:22;;;;;;;3.47;2.88;;;;;;;;;;5052375;28;20048;-88
2023/03/06 02:35:51;;;;;;;2.45;1.98;;;;;;;;;;5052071;28;20107;-88
2023/03/06 02:38:18;;;;;;;2.03;1.92;;;;;;;;;;5052503;28;20049;-88
2023/03/06 02:40:46;;;;;;;3.28;2.45;;;;;;;;;;5052277;28;20045;-88
2023/03/06 02:43:15;;;;;;;4.50;3.53;;;;;;;;;;5051970;28;20486;-88
2023/03/06 02:45:44;;;;;;;4.55;4.32;;;;;;;;;;5051952;28;20048;-88
2023/03/06 02:48:11;;;;;;;3.42;3.22;;;;;;;;;;5052307;28;20094;-88
2023/03/06 02:50:37;;;;;;;4.28;2.83;;;;;;;;;;5052096;28;20048;-88
2023/03/06 02:53:04;;;;;;;3.90;3.65;;;;;;;;;;5051973;28;20560;-89
2023/03/06 02:55:31;;;;;;;3.20;2.95;;;;;;;;;;5052113;28;20053;-88
2023/03/06 02:57:57;;;;;;;1.83;1.73;;;;;;;;;;5051879;28;20102;-88
2023/03/06 03:00:26;;;;;;;2.58;2.45;;;;;;;;;;5051824;28;20396;-88
2023/03/06 03:02:52;;;;;;;4.93;3.05;;;;;;;;;;5052143;28;20091;-88
2023/03/06 03:05:18;;;;;;;2.13;2.03;;;;;;;;;;5051682;28;20053;-88
2023/03/06 03:07:45;;;;;;;1.10;1.10;;;;;;;;;;5054514;28;20399;-88
2023/03/06 03:10:12;;;;;;;3.28;3.08;;;;;;;;;;5055699;28;20103;-89
2023/03/06 03:12:38;;;;;;;2.88;2.50;;;;;;;;;;5054920;28;20049;-88
2023/03/06 03:15:05;;;;;;;2.92;2.55;;;;;;;;;;5053765;28;20464;-88
2023/03/06 03:17:34;;;;;;;2.38;2.22;;;;;;;;;;5034698;28;20046;-88
2023/03/06 03:20:01;;;;;;;2.20;2.05;;;;;;;;;;5034938;28;20045;-88
2023/03/06 03:22:28;;;;;;;2.03;1.92;;;;;;;;;;5035299;28;20495;-88
2023/03/06 03:24:54;;;;;;;3.15;2.85;;;;;;;;;;5035616;28;20124;-88
2023/03/06 03:27:21;;;;;;;3.17;2.97;;;;;;;;;;5035620;28;20099;-88
2023/03/06 03:29:47;;;;;;;2.40;2.20;;;;;;;;;;5035072;28;20053;-88
2023/03/06 03:32:14;;;;;;;2.88;2.78;;;;;;;;;;5035495;28;20119;-88
2023/03/06 03:34:41;;;;;;;3.75;3.45;;;;;;;;;;5035347;28;20045;-88
2023/03/06 03:37:08;;;;;;;4.32;3.17;;;;;;;;;;5035351;28;20525;-88
2023/03/06 03:39:34;;;;;;;4.03;3.53;;;;;;;;;;5035340;28;20053;-88
2023/03/06 03:42:01;;;;;;;1.77;1.73;;;;;;;;;;5034993;28;20127;-88
2023/03/06 03:44:27;;;;;;;2.83;2.72;;;;;;;;;;5035144;28;20457;-88
2023/03/06 03:46:54;;;;;;;2.35;2.25;;;;;;;;;;5035184;28;20057;-88
2023/03/06 03:49:20;;;;;;;2.25;2.13;;;;;;;;;;5034724;28;20104;-88
2023/03/06 03:51:48;;;;;;;3.13;3.00;;;;;;;;;;5035055;28;20118;-88
2023/03/06 03:54:15;;;;;;;2.70;2.50;;;;;;;;;;5034918;28;20072;-88
2023/03/06 03:56:41;;;;;;;2.47;2.28;;;;;;;;;;5034492;28;20602;-88
2023/03/06 03:59:08;;;;;;;1.70;1.60;;;;;;;;;;5034671;28;20132;-88
2023/03/06 04:01:34;;;;;;;3.70;3.50;;;;;;;;;;5034957;28;20053;-88
2023/03/06 04:04:01;;;;;;;2.60;2.50;;;;;;;;;;5034532;28;20172;-88
2023/03/06 04:06:28;;;;;;;4.82;4.63;;;;;;;;;;5034696;28;20053;-88
2023/03/06 04:08:55;;;;;;;2.40;2.30;;;;;;;;;;5034674;28;20053;-88
2023/03/06 04:11:22;;;;;;;4.70;4.30;;;;;;;;;;5034692;28;20042;-88
2023/03/06 04:13:48;;;;;;;3.58;3.30;;;;;;;;;;5034330;28;20049;-88
2023/03/06 04:16:15;;;;;;;2.67;2.53;;;;;;;;;;5034341;28;20561;-88
2023/03/06 04:18:41;;;;;;;2.65;2.45;;;;;;;;;;5034226;28;20049;-88
2023/03/06 04:21:08;;;;;;;2.53;2.42;;;;;;;;;;5034344;28;20050;-88
2023/03/06 04:23:34;;;;;;;3.40;2.88;;;;;;;;;;5034539;28;20061;-88
2023/03/06 04:26:02;;;;;;;2.33;2.22;;;;;;;;;;5034286;28;20112;-88
2023/03/06 04:28:29;;;;;;;2.13;2.03;;;;;;;;;;5034358;28;20380;-88
2023/03/06 04:30:55;;;;;;;3.42;3.22;;;;;;;;;;5033846;28;20057;-88
2023/03/06 04:33:22;;;;;;;1.33;1.30;;;;;;;;;;5033971;28;20049;-88
2023/03/06 04:35:49;;;;;;;1.77;1.67;;;;;;;;;;5033904;28;20095;-88
2023/03/06 04:38:15;;;;;;;4.03;3.85;;;;;;;;;;5033839;28;20100;-88
2023/03/06 04:40:42;;;;;;;2.25;2.15;;;;;;;;;;5034069;28;20049;-88
2023/03/06 04:43:10;;;;;;;1.70;1.63;;;;;;;;;;5034075;28;20134;-88
2023/03/06 04:45:37;;;;;;;2.22;2.13;;;;;;;;;;5033760;28;20537;-88
2023/03/06 04:48:04;;;;;;;1.67;1.60;;;;;;;;;;5034170;28;20107;-88
2023/03/06 04:50:31;;;;;;;2.15;2.05;;;;;;;;;;5033710;28;20103;-89
2023/03/06 04:52:58;;;;;;;2.80;2.67;;;;;;;;;;5034038;28;20140;-88
2023/03/06 04:55:24;;;;;;;4.35;4.15;;;;;;;;;;5033684;28;20099;-88
2023/03/06 04:57:51;;;;;;;6.00;2.42;;;;;;;;;;5033242;28;20462;-88
2023/03/06 05:00:20;;;;;;;2.47;2.17;;;;;;;;;;5033739;28;20053;-88
2023/03/06 05:02:47;;;;;;;1.85;1.75;;;;;;;;;;5033580;28;20499;-88
2023/03/06 05:05:14;;;;;;;2.20;2.08;;;;;;;;;;5033552;28;20108;-88
2023/03/06 05:07:40;;;;;;;4.72;3.22;;;;;;;;;;5033624;28;20557;-88
2023/03/06 05:10:08;;;;;;;2.05;1.95;;;;;;;;;;5033643;28;20057;-88
2023/03/06 05:12:35;;;;;;;3.45;3.20;;;;;;;;;;5033511;28;20045;-88
2023/03/06 05:15:01;;;;;;;2.55;2.45;;;;;;;;;;5033511;28;20049;-88
2023/03/06 05:17:29;;;;;;;2.38;2.28;;;;;;;;;;5033689;28;20502;-88
2023/03/06 05:19:56;;;;;;;3.00;2.88;;;;;;;;;;5033226;28;20437;-88
2023/03/06 05:22:22;;;;;;;3.08;2.72;;;;;;;;;;5033644;28;20079;-88
2023/03/06 05:24:49;;;;;;;2.42;2.22;;;;;;;;;;5033108;28;20095;-89
2023/03/06 05:27:15;;;;;;;2.47;2.38;;;;;;;;;;5033348;28;20049;-89
2023/03/06 05:29:42;;;;;;;4.07;2.17;;;;;;;;;;5032667;28;20053;-90
2023/03/06 05:32:08;;;;;;;11.52;3.67;;;;;;;;;;5032839;28;20449;-89
2023/03/06 05:34:36;;;;;;;2.88;2.42;;;;;;;;;;5033299;28;20056;-89
2023/03/06 05:37:03;;;;;;;3.00;2.75;;;;;;;;;;5033153;28;20045;-89
2023/03/06 05:39:29;;;;;;;6.68;6.15;;;;;;;;;;5033270;28;20060;-89
2023/03/06 05:41:55;;;;;;;4.70;4.45;;;;;;;;;;5032743;28;20045;-89
2023/03/06 05:44:22;;;;;;;4.90;4.60;;;;;;;;;;5033352;28;20450;-90
2023/03/06 05:46:49;;;;;;;2.90;2.72;;;;;;;;;;5033108;28;20050;-89
2023/03/06 05:49:16;;;;;;;2.05;1.95;;;;;;;;;;5033188;28;20119;-89
2023/03/06 05:51:44;;;;;;;4.82;4.47;;;;;;;;;;5032645;28;20049;-90
2023/03/06 05:54:10;;;;;;;4.47;4.20;;;;;;;;;;5032818;28;20057;-90
2023/03/06 05:56:37;;;;;;;4.18;3.40;;;;;;;;;;5032890;28;20054;-90
2023/03/06 05:59:03;;;;;;;3.60;3.45;;;;;;;;;;5032575;28;20099;-90
2023/03/06 06:01:30;;;;;;;4.35;3.88;;;;;;;;;;5032880;28;20045;-90
2023/03/06 06:03:56;;;;;;;3.10;2.90;;;;;;;;;;5033036;28;20058;-90
2023/03/06 06:06:23;;;;;;;3.97;3.78;;;;;;;;;;5032579;28;20050;-90
2023/03/06 06:08:51;;;;;;;5.65;5.05;;;;;;;;;;5033038;28;20053;-90
2023/03/06 06:11:19;;;;;;;2.33;2.22;;;;;;;;;;5032935;28;20049;-91
2023/03/06 06:13:47;;;;;;;9.10;4.03;;;;;;;;;;5035432;28;20053;-88
2023/03/06 06:16:15;;;;;;;4.38;4.05;;;;;;;;;;5051169;28;20049;-91
2023/03/06 06:18:42;;;;;;;4.72;4.25;;;;;;;;;;5037435;28;20141;-88
2023/03/06 06:21:10;;;;;;;2.88;2.67;;;;;;;;;;5032641;28;20053;-88
2023/03/06 06:23:36;;;;;;;1.75;1.67;;;;;;;;;;5036423;28;20107;-89
2023/03/06 06:26:05;;;;;;;4.25;3.53;;;;;;;;;;5032524;28;20549;-88
2023/03/06 06:28:32;;;;;;;8.25;5.35;;;;;;;;;;5032463;28;20046;-88
2023/03/06 06:30:59;;;;;;;2.47;2.33;;;;;;;;;;5032021;28;20093;-91
2023/03/06 06:33:25;;;;;;;3.58;3.28;;;;;;;;;;5049918;28;20102;-91
2023/03/06 06:35:52;;;;;;;4.80;4.18;;;;;;;;;;5052170;28;20755;-90
2023/03/06 06:38:19;;;;;;;3.60;3.08;;;;;;;;;;5052271;28;20045;-88
2023/03/06 06:40:46;;;;;;;2.08;1.98;;;;;;;;;;5052152;28;20521;-89
2023/03/06 06:43:13;;;;;;;7.43;7.13;;;;;;;;;;5040409;28;20057;-88
2023/03/06 06:45:42;;;;;;;5.13;4.78;;;;;;;;;;5036513;28;20054;-89
2023/03/06 06:48:08;;;;;;;6.22;5.75;;;;;;;;;;5036542;28;20544;-88
2023/03/06 06:50:35;;;;;;;6.88;3.75;;;;;;;;;;5036294;28;20057;-89
2023/03/06 06:53:01;;;;;;;4.93;3.90;;;;;;;;;;5036182;28;20049;-88
2023/03/06 06:55:28;;;;;;;6.28;5.70;;;;;;;;;;5036248;28;20053;-88
2023/03/06 06:57:54;;;;;;;4.00;3.70;;;;;;;;;;5036233;28;20046;-88
2023/03/06 07:00:23;;;;;;;5.72;5.30;;;;;;;;;;5036263;28;20057;-88
2023/03/06 07:02:50;;;;;;;3.55;2.58;;;;;;;;;;5046621;28;20049;-88
2023/03/06 07:05:16;;;;;;;5.63;4.82;;;;;;;;;;5054264;28;20099;-89
2023/03/06 07:07:43;;;;;;;8.98;5.07;;;;;;;;;;5036107;28;20049;-88
2023/03/06 07:10:12;;;;;;;6.95;4.57;;;;;;;;;;5049942;28;20128;-88
2023/03/06 07:12:39;;;;;;;6.32;6.03;;;;;;;;;;5046579;28;20050;-89
2023/03/06 07:15:06;;;;;;;6.40;5.82;;;;;;;;;;5035567;28;20053;-88
2023/03/06 07:17:35;;;;;;;7.75;4.43;;;;;;;;;;5035793;28;20080;-88
2023/03/06 07:20:01;;;;;;;5.93;5.43;;;;;;;;;;5035445;28;20049;-89
2023/03/06 07:22:28;;;;;;;4.03;3.83;;;;;;;;;;5042472;28;20049;-89
2023/03/06 07:24:54;;;;;;;4.30;4.00;;;;;;;;;;5055585;28;20453;-88
2023/03/06 07:27:22;;;;;;;5.45;4.20;;;;;;;;;;5054071;28;20045;-88
2023/03/06 07:29:48;;;;;;;5.88;5.32;;;;;;;;;;5055130;28;20132;-89
2023/03/06 07:32:15;;;;;;;6.00;5.60;;;;;;;;;;5054750;28;20095;-89
2023/03/06 07:34:44;;;;;;;4.57;4.25;;;;;;;;;;5055047;28;20111;-89
2023/03/06 07:37:10;;;;;;;3.85;3.65;;;;;;;;;;5043256;28;20076;-89
2023/03/06 07:39:37;;;;;;;3.05;2.90;;;;;;;;;;5035149;28;20498;-89
2023/03/06 07:42:03;;;;;;;6.00;5.50;;;;;;;;;;5034699;28;20486;-90
2023/03/06 07:44:30;;;;;;;5.93;5.43;;;;;;;;;;5034782;28;20099;-89
2023/03/06 07:46:57;;;;;;;6.47;5.97;;;;;;;;;;5036403;28;20123;-89
2023/03/06 07:49:23;;;;;;;4.30;4.07;;;;;;;;;;5054892;28;20094;-89
2023/03/06 07:51:51;;;;;;;5.30;4.90;;;;;;;;;;5054973;28;20045;-91
2023/03/06 07:54:17;;;;;;;6.70;5.25;;;;;;;;;;5053765;28;20045;-89
2023/03/06 07:56:44;;;;;;;7.22;5.28;;;;;;;;;;5041318;28;20451;-90
2023/03/06 07:59:11;;;;;;;6.60;5.97;;;;;;;;;;5035138;28;20083;-89
2023/03/06 08:01:39;;;;;;;2.85;2.58;;;;;;;;;;5034605;28;20458;-89
2023/03/06 08:04:05;;;;;;;5.00;4.75;;;;;;;;;;5052775;28;20056;-89
2023/03/06 08:06:32;;;;;;;6.45;5.95;;;;;;;;;;5054464;28;20103;-89
2023/03/06 08:09:00;;;;;;;5.22;4.75;;;;;;;;;;5054874;28;20049;-89
2023/03/06 08:11:28;;;;;;;5.55;5.15;;;;;;;;;;5054595;28;20099;-90
2023/03/06 08:13:55;;;;;;;5.28;4.85;;;;;;;;;;5054506;28;20045;-89
2023/03/06 08:16:23;;;;;;;5.85;5.35;;;;;;;;;;5054204;28;20103;-89
2023/03/06 08:18:50;;;;;;;6.07;5.55;;;;;;;;;;5055506;28;20461;-90
2023/03/06 08:21:17;;;;;;;7.50;7.00;;;;;;;;;;5057023;28;20052;-90
2023/03/06 08:23:44;;;;;;;6.68;5.90;;;;;;;;;;5034562;28;20103;-89
2023/03/06 08:26:14;;;;;;;4.80;4.45;;;;;;;;;;5034595;28;20091;-89
2023/03/06 08:28:41;;;;;;;5.50;5.20;;;;;;;;;;5043562;28;20048;-89
2023/03/06 08:31:08;;;;;;;7.88;7.32;;;;;;;;;;5054097;28;20053;-90
2023/03/06 08:33:34;;;;;;;6.50;5.25;;;;;;;;;;5054093;28;20487;-90
2023/03/06 08:36:01;;;;;;;4.22;3.92;;;;;;;;;;5054451;28;20045;-90
2023/03/06 08:38:27;;;;;;;5.82;5.32;;;;;;;;;;5054054;28;20049;-89
2023/03/06 08:40:54;;;;;;;7.90;7.20;;;;;;;;;;5053932;28;20483;-89
2023/03/06 08:43:22;;;;;;;7.60;5.90;;;;;;;;;;5054371;28;20049;-89
2023/03/06 08:45:51;;;;;;;4.60;4.30;;;;;;;;;;5053616;28;20059;-89
2023/03/06 08:48:17;;;;;;;6.72;6.18;;;;;;;;;;5054344;28;20052;-89
2023/03/06 08:50:44;;;;;;;7.25;6.80;;;;;;;;;;5054064;28;20049;-90
2023/03/06 08:53:10;;;;;;;9.18;8.32;;;;;;;;;;5054086;28;20049;-90
2023/03/06 08:55:37;;;;;;;5.47;5.07;;;;;;;;;;5053689;28;20045;-89
2023/03/06 08:58:04;;;;;;;6.97;6.47;;;;;;;;;;5053840;28;20114;-90
2023/03/06 09:00:32;;;;;;;6.00;5.45;;;;;;;;;;5053697;28;20107;-90
2023/03/06 09:02:58;;;;;;;5.57;5.15;;;;;;;;;;5053469;28;20490;-89
2023/03/06 09:05:25;;;;;;;6.75;6.32;;;;;;;;;;5053145;28;20497;-90
2023/03/06 09:07:52;;;;;;;8.65;8.15;;;;;;;;;;5053537;28;20052;-89
2023/03/06 09:10:19;;;;;;;7.40;6.80;;;;;;;;;;5053398;28;20579;-90
2023/03/06 09:12:46;;;;;;;4.35;4.05;;;;;;;;;;5038335;28;20454;-90
2023/03/06 09:15:12;;;;;;;6.20;4.63;;;;;;;;;;5033673;28;20103;-89
2023/03/06 09:17:41;;;;;;;5.35;4.95;;;;;;;;;;5033283;28;20489;-91
2023/03/06 09:20:08;;;;;;;9.90;6.95;;;;;;;;;;5033745;28;20055;-92
2023/03/06 09:22:35;;;;;;;7.43;7.03;;;;;;;;;;5033657;28;20049;-90
2023/03/06 09:25:02;;;;;;;7.65;5.95;;;;;;;;;;5049859;28;20052;-89
2023/03/06 09:27:29;;;;;;;6.43;6.13;;;;;;;;;;5053247;28;20049;-91
2023/03/06 09:29:55;;;;;;;4.30;4.03;;;;;;;;;;5049566;28;20103;-91
2023/03/06 09:32:22;;;;;;;7.13;6.70;;;;;;;;;;5053495;28;20044;-92
2023/03/06 09:34:50;;;;;;;7.22;6.75;;;;;;;;;;5034346;28;20088;-92
2023/03/06 09:37:17;;;;;;;6.40;5.45;;;;;;;;;;5033696;28;20049;-92
2023/03/06 09:39:44;;;;;;;3.83;3.63;;;;;;;;;;5033552;28;20099;-91
2023/03/06 09:42:14;;;;;;;5.63;4.90;;;;;;;;;;5033683;28;20050;-91
2023/03/06 09:44:42;;;;;;;5.13;4.75;;;;;;;;;;5033080;28;20095;-89
2023/03/06 09:47:23;;;;;;;6.20;5.68;;;;;;;;;;5033153;28;20056;-93
2023/03/06 09:50:07;;;;;;;4.80;4.57;;;;;;;;;;5048849;28;20498;-91
2023/03/06 09:52:36;;;;;;;8.10;7.47;;;;;;;;;;5052915;28;20045;-92
2023/03/06 09:55:09;;;;;;;8.75;7.97;;;;;;;;;;5053244;28;20053;-90
2023/03/06 09:57:36;;;;;;;7.65;7.07;;;;;;;;;;5053250;28;20080;-92
2023/03/06 10:00:05;;;;;;;5.85;5.53;;;;;;;;;;5033217;28;20100;-91
2023/03/06 10:02:36;;;;;;;7.20;6.60;;;;;;;;;;5033365;28;20072;-93
2023/03/06 10:05:08;;;;;;;8.75;8.38;;;;;;;;;;5032881;28;20049;-88
2023/03/06 10:07:40;;;;;;;6.28;5.68;;;;;;;;;;5032840;28;20587;-88
2023/03/06 10:10:11;;;;;;;8.60;8.00;;;;;;;;;;5032778;28;20045;-89
2023/03/06 10:12:40;;;;;;;5.50;4.43;;;;;;;;;;5032744;28;20100;-89
2023/03/06 10:15:11;;;;;;;8.65;8.07;;;;;;;;;;5032618;28;20100;-89
2023/03/06 10:17:39;;;;;;;7.28;6.65;;;;;;;;;;5037222;28;20107;-88
2023/03/06 10:20:24;;;;;;;8.05;7.55;;;;;;;;;;5039150;28;20049;-89
2023/03/06 10:22:57;;;;;;;5.38;4.97;;;;;;;;;;5039283;28;20493;-90
2023/03/06 10:25:26;;;;;;;7.45;6.85;;;;;;;;;;5039316;28;20107;-90
2023/03/06 10:27:56;;;;;;;10.23;9.63;;;;;;;;;;5039296;28;20049;-89
2023/03/06 10:30:25;;;;;;;10.07;9.40;;;;;;;;;;5038555;28;20561;-89
2023/03/06 10:32:54;;;;;;;7.13;6.63;;;;;;;;;;5038743;28;20430;-89
2023/03/06 10:35:27;;;;;;;4.63;4.43;;;;;;;;;;5039426;28;20148;-89
2023/03/06 10:37:59;;;;;;;7.25;6.82;;;;;;;;;;5039376;28;20104;-89
2023/03/06 10:40:28;;;;;;;7.05;6.28;;;;;;;;;;5038803;28;20418;-89
2023/03/06 10:42:54;;;;;;;8.18;7.57;;;;;;;;;;5038900;28;20049;-90
2023/03/06 10:45:21;;;;;;;8.40;7.88;;;;;;;;;;5038935;28;20072;-89
2023/03/06 10:47:48;;;;;;;7.28;6.88;;;;;;;;;;5038702;28;20057;-89
2023/03/06 10:50:22;;;;;;;6.90;6.57;;;;;;;;;;5038918;28;20045;-89
2023/03/06 10:53:00;;;;;;;7.68;7.28;;;;;;;;;;5038629;28;20046;-89
2023/03/06 10:55:28;;;;;;;7.72;7.30;;;;;;;;;;5038913;28;20081;-89
2023/03/06 10:57:54;;;;;;;7.90;7.50;;;;;;;;;;5039233;28;20049;-89
2023/03/06 11:00:26;;;;;;;8.73;8.23;;;;;;;;;;5060315;28;20502;-88
2023/03/06 11:03:04;;;;;;;9.25;8.65;;;;;;;;;;5058417;28;20045;-89
2023/03/06 11:05:30;;;;;;;9.13;8.32;;;;;;;;;;5059176;28;20053;-89
2023/03/06 11:07:58;;;;;;;7.30;6.88;;;;;;;;;;5059010;28;20053;-89
2023/03/06 11:10:26;;;;;;;11.90;11.23;;;;;;;;;;5058788;28;20059;-89
2023/03/06 11:12:57;;;;;;;7.55;6.90;;;;;;;;;;5058447;28;20110;-89
2023/03/06 11:15:24;;;;;;;9.27;8.68;;;;;;;;;;5058461;28;20091;-90
2023/03/06 11:17:52;;;;;;;9.13;7.18;;;;;;;;;;5058679;28;20521;-88
2023/03/06 11:20:20;;;;;;;12.32;11.73;;;;;;;;;;5058673;28;20132;-89
2023/03/06 11:22:48;;;;;;;7.25;6.75;;;;;;;;;;5057733;28;20044;-90
2023/03/06 11:25:16;;;;;;;8.15;7.65;;;;;;;;;;5058582;28;20049;-89
2023/03/06 11:27:46;;;;;;;8.40;7.97;;;;;;;;;;5067889;28;20048;-90
2023/03/06 11:30:17;;;;;;;8.50;7.80;;;;;;;;;;5059491;28;20056;-89
2023/03/06 11:32:45;;;;;;;10.15;9.52;;;;;;;;;;5055198;28;20486;-90
2023/03/06 11:35:13;;;;;;;8.13;7.60;;;;;;;;;;5039803;28;20053;-89
2023/03/06 11:37:42;;;;;;;11.80;11.10;;;;;;;;;;5035143;28;20045;-88
2023/03/06 11:40:15;;;;;;;8.48;7.95;;;;;;;;;;5035224;28;20058;-89
2023/03/06 11:42:44;;;;;;;10.70;9.73;;;;;;;;;;5035369;28;20645;-88
2023/03/06 11:45:24;;;;;;;9.10;8.55;;;;;;;;;;5050050;28;20103;-89
2023/03/06 11:47:53;;;;;;;9.85;7.97;;;;;;;;;;5055440;28;20060;-89
2023/03/06 11:50:25;;;;;;;13.27;12.57;;;;;;;;;;5055198;28;20049;-90
2023/03/06 11:52:53;;;;;;;9.05;8.25;;;;;;;;;;5054895;28;20045;-89
2023/03/06 11:55:24;;;;;;;7.32;6.93;;;;;;;;;;5055250;28;20053;-89
2023/03/06 11:57:53;;;;;;;7.68;7.15;;;;;;;;;;5055066;28;20045;-89
2023/03/06 12:00:29;;;;;;;11.20;10.60;;;;;;;;;;5054843;28;20494;-89
2023/03/06 12:03:19;;;;;;;9.43;8.70;;;;;;;;;;5054325;28;20052;-89
2023/03/06 12:05:47;;;;;;;10.25;9.68;;;;;;;;;;5055055;28;20106;-90
2023/03/06 12:08:17;;;;;;;7.78;7.07;;;;;;;;;;5054883;28;20048;-88
2023/03/06 12:10:45;;;;;;;7.10;6.57;;;;;;;;;;5054838;28;20060;-90
2023/03/06 12:13:18;;;;;;;6.93;6.50;;;;;;;;;;5054753;28;20102;-89
2023/03/06 12:15:59;;;;;;;9.75;9.18;;;;;;;;;;5054732;28;20052;-89
2023/03/06 12:18:34;;;;;;;6.95;6.53;;;;;;;;;;5054716;28;20045;-89
2023/03/06 12:21:04;;;;;;;9.38;8.85;;;;;;;;;;5054442;28;20107;-89
2023/03/06 12:23:50;;;;;;;9.13;8.60;;;;;;;;;;5054681;28;20053;-89
2023/03/06 12:26:33;;;;;;;8.25;7.75;;;;;;;;;;5054676;28;20056;-88
2023/03/06 12:29:08;;;;;;;6.68;6.28;;;;;;;;;;5054229;28;20110;-90
2023/03/06 12:31:40;;;;;;;8.13;7.57;;;;;;;;;;5054126;28;20052;-89
2023/03/06 12:34:23;;;;;;;6.90;6.40;;;;;;;;;;5054344;28;20045;-89
2023/03/06 12:36:55;;;;;;;6.18;5.78;;;;;;;;;;5054481;28;20052;-89
2023/03/06 12:39:27;;;;;;;5.60;5.30;;;;;;;;;;5053543;28;20391;-89
2023/03/06 12:42:10;;;;;;;6.47;6.10;;;;;;;;;;5054010;28;20049;-88
2023/03/06 12:44:52;;;;;;;7.45;7.00;;;;;;;;;;5046946;28;20075;-89
2023/03/06 12:47:21;;;;;;;6.13;5.68;;;;;;;;;;5031596;28;20127;-89
2023/03/06 12:49:50;;;;;;;8.18;7.47;;;;;;;;;;5033861;28;20490;-89
2023/03/06 12:52:20;;;;;;;4.88;4.55;;;;;;;;;;5036275;28;21568;-90
2023/03/06 12:54:46;;;;;;;5.60;5.30;;;;;;;;;;5053882;28;20115;-89
2023/03/06 12:57:14;;;;;;;6.80;5.38;;;;;;;;;;5053539;28;20512;-89
2023/03/06 12:59:43;;;;;;;7.25;6.60;;;;;;;;;;5047046;28;20053;-90
2023/03/06 13:02:29;;;;;;;9.00;8.20;;;;;;;;;;5034013;28;20064;-89
2023/03/06 13:05:04;;;;;;;6.25;5.88;;;;;;;;;;5043248;28;20456;-89
2023/03/06 13:07:40;;;;;;;6.28;5.85;;;;;;;;;;5054142;28;20151;-89
2023/03/06 13:10:08;;;;;;;5.38;5.05;;;;;;;;;;5053753;28;20049;-89
2023/03/06 13:12:50;;;;;;;5.32;4.93;;;;;;;;;;5054352;28;20083;-88
2023/03/06 13:15:27;;;;;;;7.30;6.80;;;;;;;;;;5051883;28;20045;-88
2023/03/06 13:17:55;;;;;;;6.63;6.13;;;;;;;;;;5033916;28;20049;-89
2023/03/06 13:20:32;;;;;;;8.55;6.05;;;;;;;;;;5034293;28;20057;-89
2023/03/06 13:22:59;;;;;;;6.13;5.32;;;;;;;;;;5041960;28;20045;-90
2023/03/06 13:25:35;;;;;;;10.30;9.57;;;;;;;;;;5033787;28;20057;-88
2023/03/06 13:28:03;;;;;;;6.80;6.45;;;;;;;;;;5033962;28;20056;-90
2023/03/06 13:30:44;;;;;;;6.00;5.18;;;;;;;;;;5036522;28;20403;-90
2023/03/06 13:33:35;;;;;;;5.82;5.45;;;;;;;;;;5040558;28;20040;-90
2023/03/06 13:36:24;;;;;;;7.10;6.55;;;;;;;;;;5053006;28;20049;-91
2023/03/06 13:39:08;;;;;;;8.25;7.85;;;;;;;;;;5053667;28;20102;-89
2023/03/06 13:41:42;;;;;;;6.35;6.03;;;;;;;;;;5033764;28;20050;-89
2023/03/06 13:44:29;;;;;;;10.50;9.88;;;;;;;;;;5041083;28;20113;-89
2023/03/06 13:46:57;;;;;;;6.90;6.40;;;;;;;;;;5039215;28;20045;-90
2023/03/06 13:49:24;;;;;;;6.95;6.63;;;;;;;;;;5051176;28;20053;-89
2023/03/06 13:52:01;;;;;;;7.47;6.93;;;;;;;;;;5032216;28;20824;-88
2023/03/06 13:54:33;;;;;;;7.15;6.68;;;;;;;;;;5034006;28;20099;-89
2023/03/06 13:57:29;;;;;;;5.13;4.70;;;;;;;;;;5039818;28;20503;-88
2023/03/06 14:00:05;;;;;;;8.48;5.10;;;;;;;;;;4944223;29;20043;-89
2023/03/06 14:05:24;;;;;;;8.50;7.90;;;;;;;;;;4941481;29;20532;-89
2023/03/06 14:08:03;;;;;;;9.02;8.50;;;;;;;;;;4951778;29;20051;-89
2023/03/06 14:10:31;;;;;;;9.27;8.30;;;;;;;;;;4952218;29;20043;-91
2023/03/06 14:13:01;;;;;;;9.13;8.30;;;;;;;;;;4950097;29;20469;-93
2023/03/06 14:15:28;;;;;;;6.13;5.75;;;;;;;;;;4952990;29;20054;-92
2023/03/06 14:17:57;;;;;;;9.40;8.90;;;;;;;;;;4952894;29;20055;-91
2023/03/06 14:20:27;;;;;;;6.68;6.22;;;;;;;;;;4952605;29;20134;-92
2023/03/06 14:22:53;;;;;;;7.00;6.70;;;;;;;;;;4952479;29;20102;-95
2023/03/06 14:25:25;;;;;;;7.50;7.10;;;;;;;;;;4952678;29;20051;-92
2023/03/06 14:27:52;;;;;;;7.18;6.78;;;;;;;;;;4952857;29;20100;-92
2023/03/06 14:30:20;;;;;;;6.90;6.40;;;;;;;;;;4952540;29;20059;-92
2023/03/06 14:32:48;;;;;;;7.30;6.90;;;;;;;;;;4952739;29;20061;-91
2023/03/06 14:35:22;;;;;;;6.47;6.10;;;;;;;;;;5021480;28;20037;-90
2023/03/06 14:37:51;;;;;;;8.07;7.47;;;;;;;;;;5013185;28;20045;-90
2023/03/06 14:40:20;;;;;;;5.35;5.05;;;;;;;;;;5019452;28;20045;-92
2023/03/06 14:42:48;;;;;;;7.72;7.32;;;;;;;;;;5016454;28;20488;-93
2023/03/06 14:45:16;;;;;;;7.28;6.65;;;;;;;;;;5013523;28;20050;-92
2023/03/06 14:47:42;;;;;;;6.60;6.20;;;;;;;;;;5013027;28;20118;-91
2023/03/06 14:50:20;;;;;;;6.47;5.93;;;;;;;;;;5016547;28;20055;-89
2023/03/06 14:52:47;;;;;;;7.35;6.70;;;;;;;;;;5032449;28;20053;-91
2023/03/06 14:55:19;;;;;;;8.50;7.70;;;;;;;;;;5032552;28;20049;-90